Latest Weather Observations for Ouse

IDT60801

Issued at 6:35 pm EST Thursday 2 October 2014 (issued every 30 minutes, with the page automatically refreshed every 10 minutes)

About weather observations | Map of weather stations | Latest weather observations for TAS | Other Formats
Station Details ID: 095048 Name: OUSE FIRE STATION Lat: -42.48 Lon: 146.71 Height: 90.0 m
Data from the previous 72 hours. | See also: Recent months at Ouse
Date/Time
EST
Temp
°C
App
Temp
°C
Dew
Point
Rel
Hum
%
Delta-T
°C
Wind Press
QNH
hPa
Press
MSL
hPa
Rain
since 9 am
mm
Dir
 
Spd
km/h
Gust
km/h
Spd
kts
Gust
kts
02/06:30pm 10.7 6.4 3.0 59 3.3 SW 15 22 8 12 1017.7 1017.7 0.0
02/06:00pm 11.2 6.0 3.3 58 3.5 WSW 20 30 11 16 1017.2 1017.2 0.0
02/05:30pm 11.4 6.7 3.2 57 3.6 WSW 17 24 9 13 1016.8 1016.8 0.0
02/05:00pm 12.0 6.4 3.3 55 3.9 WSW 22 33 12 18 1016.6 1016.6 0.0
02/04:30pm 12.5 6.9 3.2 53 4.1 WSW 22 37 12 20 1016.4 1016.4 0.0
02/04:00pm 13.0 7.4 3.7 53 4.2 WSW 22 39 12 21 1016.0 1016.1 0.0
02/03:30pm 13.5 8.0 4.1 53 4.3 SW 22 43 12 23 1015.5 1015.6 0.0
02/03:00pm 14.0 8.2 4.6 53 4.4 WSW 24 35 13 19 1015.5 1015.6 0.0
02/02:30pm 14.4 9.6 5.7 56 4.1 SW 20 32 11 17 1014.9 1015.0 0.0
02/02:00pm 14.3 8.2 6.4 59 3.8 W 28 48 15 26 1014.5 1014.6 0.0
02/01:56pm 14.6 8.5 6.4 58 4.0 W 28 46 15 25 1014.5 1014.6 0.0
02/01:30pm 15.0 10.6 7.3 60 3.8 WNW 20 35 11 19 1014.1 1014.2 0.0
02/01:07pm 16.3 10.3 7.0 54 4.6 W 28 48 15 26 1014.1 1014.2 0.0
02/01:00pm 16.4 11.4 7.9 57 4.3 W 24 41 13 22 1014.0 1014.1 0.0
02/12:30pm 16.1 11.0 7.8 58 4.2 W 24 41 13 22 1014.0 1014.1 0.0
02/12:23pm 15.8 9.9 7.3 57 4.2 W 28 50 15 27 1014.1 1014.2 0.0
02/12:00pm 15.2 10.8 7.2 59 4.0 W 20 35 11 19 1014.1 1014.2 0.0
02/11:30am 15.8 10.7 7.6 58 4.1 W 24 37 13 20 1013.9 1014.0 0.0
02/11:00am 15.6 9.7 7.4 58 4.1 W 28 41 15 22 1013.9 1014.0 0.0
02/10:30am 15.5 10.5 8.0 61 3.8 W 24 39 13 21 1013.7 1013.8 0.0
02/10:00am 14.5 8.9 7.3 62 3.6 WNW 26 41 14 22 1013.7 1013.8 0.0
02/09:30am 14.0 8.9 7.8 66 3.1 WNW 24 35 13 19 1013.5 1013.6 0.0
02/09:00am 14.1 9.1 8.1 67 3.0 NW 24 35 13 19 1013.4 1013.5 0.0
02/08:30am 13.4 7.9 7.4 67 2.9 WNW 26 43 14 23 1013.3 1013.4 0.0
02/08:00am 13.0 8.2 7.5 69 2.7 WNW 22 37 12 20 1013.2 1013.3 0.0
02/07:30am 12.3 7.3 6.4 67 2.8 W 22 35 12 19 1012.9 1013.0 0.0
02/07:00am 11.9 6.3 5.5 65 3.0 W 24 43 13 23 1012.8 1012.9 0.0
02/06:30am 12.1 5.0 5.7 65 3.0 W 32 57 17 31 1012.2 1012.3 0.0
02/06:22am 11.7 5.4 5.8 67 2.8 W 28 57 15 31 1012.3 1012.4 0.0
02/06:00am 11.4 6.4 6.3 71 2.4 WNW 22 37 12 20 1012.1 1012.2 0.0
02/05:30am 11.4 6.9 5.9 69 2.6 WNW 19 35 10 19 1012.0 1012.1 0.0
02/05:00am 11.6 6.1 6.1 69 2.6 WNW 24 41 13 22 1011.9 1012.0 0.0
02/04:30am 11.4 6.9 6.3 71 2.4 NW 19 28 10 15 1011.9 1012.0 0.0
02/04:00am 11.6 7.0 6.3 70 2.5 WNW 20 28 11 15 1011.8 1011.9 0.0
02/03:30am 11.2 6.8 6.7 74 2.1 WNW 19 32 10 17 1011.9 1012.0 0.0
02/03:00am 11.3 6.7 6.4 72 2.3 W 20 37 11 20 1011.7 1011.8 0.0
02/02:30am 11.0 6.4 6.7 75 2.0 NW 20 35 11 19 1011.7 1011.8 0.0
02/02:00am 10.8 6.8 6.7 76 1.9 NW 17 28 9 15 1011.8 1011.9 0.0
02/01:30am 11.1 6.7 6.6 74 2.1 NW 19 30 10 16 1012.1 1012.2 0.0
02/01:00am 11.2 7.3 7.3 77 1.9 NW 17 26 9 14 1012.4 1012.5 0.0
02/12:30am 11.2 7.7 7.3 77 1.9 NW 15 28 8 15 1012.5 1012.6 0.0
02/12:00am 10.7 7.6 7.2 79 1.7 N 13 17 7 9 1012.8 1012.9 0.0
 
Date/Time
EST
Temp
°C
App
Temp
°C
Dew
Point
Rel
Hum
%
Delta-T
°C
Wind Press
QNH
hPa
Press
MSL
hPa
Rain
since 9 am
mm
Dir
 
Spd
km/h
Gust
km/h
Spd
kts
Gust
kts
01/11:30pm 10.9 7.4 7.2 78 1.8 N 15 19 8 10 1013.2 1013.3 0.0
01/11:00pm 11.7 8.4 6.6 71 2.4 N 13 15 7 8 1013.6 1013.7 0.0
01/10:30pm 12.0 7.6 6.7 70 2.5 NW 19 32 10 17 1013.7 1013.8 0.0
01/10:00pm 11.8 6.9 7.1 73 2.3 NNW 22 39 12 21 1014.0 1014.1 0.0
01/09:30pm 11.6 6.6 6.5 71 2.4 NW 22 39 12 21 1013.8 1013.9 0.0
01/09:00pm 11.1 6.5 6.6 74 2.1 NNW 20 28 11 15 1014.2 1014.3 0.0
01/08:30pm 10.2 7.3 6.5 78 1.7 NNW 11 22 6 12 1014.1 1014.2 0.0
01/08:00pm 9.6 5.8 6.0 78 1.7 N 15 24 8 13 1014.5 1014.6 0.0
01/07:30pm 9.4 6.0 5.8 78 1.7 N 13 20 7 11 1015.1 1015.2 0.0
01/07:00pm 9.4 5.9 5.4 76 1.8 N 13 22 7 12 1015.4 1015.5 0.0
01/06:30pm 9.6 5.7 5.2 74 2.0 N 15 20 8 11 1015.6 1015.7 0.0
01/06:00pm 9.9 5.9 5.1 72 2.2 N 15 20 8 11 1015.5 1015.6 0.0
01/05:30pm 10.3 6.3 5.1 70 2.4 N 15 20 8 11 1016.0 1016.1 0.0
01/05:00pm 10.5 6.5 4.9 68 2.5 NNW 15 28 8 15 1015.9 1016.0 0.0
01/04:30pm 11.1 5.7 4.6 64 2.9 NW 22 32 12 17 1015.6 1015.7 0.0
01/04:00pm 11.4 5.9 4.2 61 3.2 NW 22 33 12 18 1015.5 1015.6 0.0
01/03:30pm 12.5 6.3 2.1 49 4.5 WNW 24 28 13 15 1015.1 1015.2 0.0
01/03:00pm 12.4 6.9 2.0 49 4.5 W 20 35 11 19 1015.0 1015.1 0.0
01/02:30pm 12.1 6.0 2.6 52 4.2 SW 24 33 13 18 1014.9 1015.0 0.0
01/02:00pm 11.8 6.0 2.5 53 4.0 WNW 22 33 12 18 1014.7 1014.8 0.0
01/01:30pm 11.7 5.9 4.4 61 3.3 W 24 37 13 20 1015.2 1015.3 0.0
01/01:00pm 11.4 6.1 3.2 57 3.6 WNW 20 28 11 15 1014.8 1014.9 0.0
01/12:30pm 10.0 5.6 4.6 69 2.4 NW 17 28 9 15 1015.3 1015.4 0.0
01/12:00pm 11.7 5.9 4.2 60 3.4 W 24 33 13 18 1015.0 1015.1 0.0
01/11:30am 11.0 6.5 4.2 63 3.1 WNW 17 26 9 14 1015.2 1015.3 0.0
01/11:00am 10.4 6.2 3.7 63 3.0 NW 15 24 8 13 1015.2 1015.3 0.0
01/10:30am 10.2 6.3 5.4 72 2.2 NW 15 22 8 12 1015.2 1015.3 0.0
01/10:00am 10.3 6.9 3.8 64 2.9 WSW 11 20 6 11 1015.5 1015.6 0.0
01/09:30am 10.5 5.5 3.8 63 3.0 WNW 19 26 10 14 1015.1 1015.3 0.0
01/09:00am 9.2 3.7 3.8 69 2.4 W 22 37 12 20 1014.9 1015.1 3.2
01/08:30am 8.6 3.2 4.4 75 1.9 W 22 35 12 19 1014.6 1014.8 3.2
01/08:00am 7.8 3.6 3.8 76 1.7 W 15 26 8 14 1014.2 1014.4 3.2
01/07:30am 6.8 2.1 3.1 77 1.6 WNW 17 28 9 15 1013.6 1013.8 3.2
01/07:00am 7.0 2.8 3.8 80 1.4 NW 15 20 8 11 1013.2 1013.4 3.2
01/06:30am 4.6 0.2 2.6 87 0.8 N 15 22 8 12 1012.5 1012.6 3.2
01/06:00am 3.9 -0.2 2.1 88 0.7 NNE 13 19 7 10 1012.1 1012.2 3.2
01/05:30am 3.8 -0.3 2.2 89 0.6 NNW 13 19 7 10 1011.2 1011.3 3.2
01/05:00am 4.2 0.5 2.1 86 0.8 NNW 11 15 6 8 1010.5 1010.6 3.2
01/04:30am 5.4 -0.8 2.1 79 1.3 W 24 41 13 22 1010.1 1010.2 3.0
01/04:00am 5.4 2.4 2.2 80 1.3 SSW 7 13 4 7 1009.6 1009.7 3.0
01/03:30am 5.0 1.7 2.5 84 1.0 W 9 17 5 9 1008.7 1008.8 3.0
01/03:00am 4.5 1.5 1.7 82 1.1 NNE 7 11 4 6 1008.3 1008.4 2.8
01/02:30am 5.3 1.6 2.5 82 1.1 NW 11 20 6 11 1007.6 1007.7 2.8
01/02:00am 5.8 0.4 2.4 79 1.4 WSW 20 32 11 17 1007.4 1007.5 2.6
01/01:30am 4.5 -0.8 1.9 83 1.0 N 19 26 10 14 1006.4 1006.5 2.4
01/01:00am 4.5 0.3 1.7 82 1.1 N 13 20 7 11 1006.1 1006.2 2.4
01/12:30am 5.5 2.2 2.7 82 1.2 NW 9 20 5 11 1006.0 1006.1 2.4
01/12:00am 3.9 0.0 1.4 84 1.0 N 11 15 6 8 1005.3 1005.4 2.4
 
Date/Time
EST
Temp
°C
App
Temp
°C
Dew
Point
Rel
Hum
%
Delta-T
°C
Wind Press
QNH
hPa
Press
MSL
hPa
Rain
since 9 am
mm
Dir
 
Spd
km/h
Gust
km/h
Spd
kts
Gust
kts
30/11:30pm 4.8 0.7 2.2 83 1.0 NNE 13 19 7 10 1005.2 1005.3 2.4
30/11:00pm 5.3 2.0 2.5 82 1.1 N 9 13 5 7 1004.8 1004.9 2.4
30/10:30pm 6.3 1.4 2.2 75 1.7 NNW 17 24 9 13 1004.3 1004.5 2.4
30/10:00pm 6.4 1.5 2.3 75 1.7 NNW 17 24 9 13 1003.5 1003.6 2.4
30/09:30pm 5.2 1.6 2.7 84 1.0 N 11 17 6 9 1002.9 1003.0 2.4
30/09:00pm 5.5 1.5 3.0 84 1.0 NNE 13 15 7 8 1002.6 1002.7 2.4
30/08:30pm 5.9 1.8 2.5 79 1.4 NNW 13 19 7 10 1002.2 1002.3 2.4
30/08:00pm 5.5 1.5 2.7 82 1.2 N 13 17 7 9 1001.4 1001.5 2.4
30/07:30pm 5.7 2.0 2.5 80 1.3 N 11 17 6 9 1000.8 1000.9 2.4
30/07:00pm 6.6 2.9 2.1 73 1.9 NNW 11 17 6 9 1000.0 1000.1 2.4
30/06:30pm 7.1 3.7 2.0 70 2.1 WNW 9 15 5 8 1000.0 1000.1 2.4
30/06:09pm 7.9 1.1 3.0 71 2.1 W 28 54 15 29 999.6 999.7 2.4
30/06:00pm 8.4 3.9 4.4 76 1.8 W 17 19 9 10 998.8 998.9 2.4
30/05:30pm 8.9 4.1 4.9 76 1.8 WNW 19 33 10 18 997.9 998.0 2.4
30/05:00pm 9.8 5.6 5.8 76 1.9 WNW 17 30 9 16 996.6 996.7 2.4
30/04:30pm 10.8 5.9 5.3 69 2.5 WNW 20 33 11 18 995.2 995.3 2.4
30/04:00pm 11.1 8.5 7.8 80 1.6 NNW 11 15 6 8 994.3 994.3 2.4
30/03:30pm 11.1 7.6 7.4 78 1.8 NW 15 20 8 11 994.0 994.0 2.4
30/03:00pm 11.4 8.4 7.5 77 1.9 NNW 13 19 7 10 993.8 993.8 2.4
30/02:30pm 10.5 8.5 8.8 89 0.8 N 9 15 5 8 994.7 994.7 2.4
30/02:00pm 9.8 6.8 7.7 87 1.0 NNW 13 22 7 12 995.0 995.1 2.2
30/01:30pm 10.5 6.6 7.2 80 1.6 NW 17 26 9 14 995.1 995.2 1.0
30/01:00pm 12.2 8.2 8.1 76 2.0 W 19 30 10 16 994.9 995.0 0.8
30/12:48pm 12.4 5.0 8.3 76 2.0 WNW 37 56 20 30 994.3 994.3 0.4
30/12:44pm 13.6 6.0 8.9 73 2.4 WNW 39 56 21 30 993.8 993.8 0.4
30/12:30pm 15.4 12.0 9.3 67 3.2 NNW 17 33 9 18 993.0 993.1 0.2
30/12:00pm 15.6 12.6 9.3 66 3.3 NNW 15 28 8 15 993.4 993.4 0.2
30/11:30am 15.1 12.4 10.3 73 2.5 NW 15 22 8 12 994.3 994.3 0.2
30/11:00am 14.3 10.6 10.1 76 2.2 NW 20 32 11 17 995.1 995.2 0.2
30/10:30am 16.9 12.2 9.3 61 4.0 WNW 24 35 13 19 995.3 995.4 0.0
30/10:00am 18.4 12.8 8.9 54 5.0 NW 28 57 15 31 995.1 995.2 0.0
30/09:32am 17.2 11.3 7.3 52 5.0 NW 28 46 15 25 995.7 995.8 0.0
30/09:30am 17.1 11.9 7.2 52 5.0 NW 24 46 13 25 995.7 995.8 0.0
30/09:20am 16.6 10.2 7.0 53 4.8 NW 30 50 16 27 995.9 996.0 0.0
30/09:19am 16.6 9.6 6.7 52 4.9 NW 33 50 18 27 996.0 996.1 0.0
30/09:00am 15.7 13.2 6.7 55 4.5 NNW 9 17 5 9 996.3 996.4 0.0
30/08:30am 15.8 11.7 6.3 53 4.6 N 17 32 9 17 996.9 997.0 0.0
30/08:00am 14.6 11.8 6.9 60 3.8 N 11 20 6 11 997.4 997.5 0.0
30/07:30am 13.4 10.5 6.5 63 3.3 N 11 17 6 9 998.4 998.5 0.0
30/07:00am 12.3 9.1 7.0 70 2.6 N 13 15 7 8 998.4 998.5 0.0
30/06:30am 8.8 4.9 5.2 78 1.6 N 15 17 8 9 998.5 998.6 0.0
30/06:00am 8.2 4.2 4.8 79 1.5 N 15 20 8 11 999.0 999.1 0.0
30/05:30am 8.6 5.0 4.8 77 1.7 N 13 19 7 10 999.3 999.4 0.0
30/05:00am 10.1 6.5 5.1 71 2.3 NNW 13 24 7 13 999.8 999.9 0.0
30/04:30am 11.5 7.6 5.4 66 2.8 NNW 15 28 8 15 1000.3 1000.4 0.0
30/04:00am 12.7 8.1 5.8 63 3.3 N 19 24 10 13 1000.5 1000.6 0.0
30/03:30am 12.9 9.4 5.6 61 3.4 N 13 19 7 10 1000.7 1000.8 0.0
30/03:00am 12.0 8.4 5.2 63 3.2 N 13 20 7 11 1001.1 1001.2 0.0
30/02:30am 12.9 8.9 5.1 59 3.6 N 15 20 8 11 1001.5 1001.6 0.0
30/02:00am 13.8 10.2 5.2 56 4.1 NNW 13 26 7 14 1002.0 1002.1 0.0
30/01:30am 13.9 9.1 5.8 58 3.9 NNW 20 35 11 19 1002.4 1002.5 0.0
30/01:00am 13.9 9.4 6.0 59 3.8 NNW 19 28 10 15 1002.7 1002.8 0.0
30/12:30am 14.0 8.9 5.9 58 3.9 NNW 22 33 12 18 1002.8 1002.9 0.0
30/12:00am 13.9 8.4 6.0 59 3.8 NW 24 39 13 21 1002.9 1003.0 0.0
 
Date/Time
EST
Temp
°C
App
Temp
°C
Dew
Point
Rel
Hum
%
Delta-T
°C
Wind Press
QNH
hPa
Press
MSL
hPa
Rain
since 9 am
mm
Dir
 
Spd
km/h
Gust
km/h
Spd
kts
Gust
kts
29/11:30pm 13.8 9.1 5.9 59 3.8 NW 20 35 11 19 1003.1 1003.2 0.0
29/11:00pm 13.4 8.7 5.3 58 3.8 NW 19 35 10 19 1003.4 1003.5 0.0
29/10:31pm 13.9 7.5 5.3 56 4.1 NW 28 46 15 25 1003.6 1003.7 0.0
29/10:30pm 13.9 7.5 5.3 56 4.1 NW 28 41 15 22 1003.6 1003.7 0.0
29/10:00pm 13.2 7.5 5.1 58 3.8 NW 24 37 13 20 1003.6 1003.7 0.0
29/09:30pm 13.3 7.2 5.0 57 3.9 NW 26 41 14 22 1003.8 1003.9 0.0
29/09:02pm 13.5 6.3 4.9 56 4.0 WNW 32 50 17 27 1004.2 1004.4 0.0
29/09:00pm 13.5 6.1 5.2 57 3.9 WNW 33 50 18 27 1004.2 1004.4 0.0
29/08:35pm 13.1 6.6 4.8 57 3.8 NW 28 48 15 26 1004.0 1004.2 0.0
29/08:30pm 12.6 7.2 4.6 58 3.7 NW 22 33 12 18 1004.0 1004.2 0.0
29/08:00pm 12.9 7.0 4.1 55 4.0 NW 24 39 13 21 1003.9 1004.0 0.0
29/07:30pm 12.8 7.8 3.5 53 4.2 NNW 19 32 10 17 1003.9 1004.0 0.0
29/07:00pm 13.4 7.0 3.2 50 4.6 NW 26 44 14 24 1003.8 1003.9 0.0

Other Formats:

Comma delimited format used in spreadsheet applications
http://www.bom.gov.au/fwo/IDT60801/IDT60801.94957.axf

JavaScript Object Notation format (JSON) in row-major order
http://www.bom.gov.au/fwo/IDT60801/IDT60801.94957.json